createdAt,value
2022-09-17T00:01:03.191Z,1.63
2022-09-17T00:03:30.453Z,1.67
2022-09-17T00:06:01.526Z,1.52
2022-09-17T00:08:29.025Z,1.65
2022-09-17T00:10:56.634Z,1.52
2022-09-17T00:13:24.050Z,1.73
2022-09-17T00:15:52.597Z,1.48
2022-09-17T00:18:19.962Z,1.33
2022-09-17T00:20:47.932Z,1.48
2022-09-17T00:23:15.957Z,1.70
2022-09-17T00:25:44.778Z,1.50
2022-09-17T00:28:13.391Z,1.90
2022-09-17T00:30:41.599Z,1.90
2022-09-17T00:33:09.103Z,1.33
2022-09-17T00:35:36.408Z,1.40
2022-09-17T00:38:03.703Z,1.30
2022-09-17T00:40:31.010Z,1.95
2022-09-17T00:42:58.388Z,2.28
2022-09-17T00:45:26.307Z,1.63
2022-09-17T00:47:58.798Z,1.63
2022-09-17T00:50:52.375Z,2.10
2022-09-17T00:53:21.821Z,1.80
2022-09-17T00:55:49.042Z,1.77
2022-09-17T00:58:17.666Z,1.70
2022-09-17T01:00:47.094Z,1.45
2022-09-17T01:03:14.677Z,1.55
2022-09-17T01:05:57.203Z,1.60
2022-09-17T01:08:30.305Z,1.52
2022-09-17T01:11:12.790Z,2.13
2022-09-17T01:13:43.260Z,1.75
2022-09-17T01:16:15.521Z,1.58
2022-09-17T01:18:51.328Z,1.65
2022-09-17T01:21:37.262Z,1.67
2022-09-17T01:24:12.128Z,1.38
2022-09-17T01:26:39.419Z,1.48
2022-09-17T01:29:26.195Z,1.50
2022-09-17T01:31:56.351Z,1.70
2022-09-17T01:34:30.155Z,1.40
2022-09-17T01:37:06.074Z,1.55
2022-09-17T01:39:43.953Z,1.35
2022-09-17T01:42:14.469Z,1.58
2022-09-17T01:44:46.651Z,1.40
2022-09-17T01:47:21.032Z,1.45
2022-09-17T01:49:49.554Z,1.63
2022-09-17T01:52:16.945Z,1.35
2022-09-17T01:54:49.204Z,1.98
2022-09-17T01:57:35.021Z,1.40
2022-09-17T02:00:04.891Z,1.90
2022-09-17T02:02:34.147Z,1.95
2022-09-17T02:05:03.899Z,1.27
2022-09-17T02:07:32.099Z,1.58
2022-09-17T02:09:59.456Z,1.67
2022-09-17T02:12:31.602Z,1.23
2022-09-17T02:14:59.924Z,1.52
2022-09-17T02:17:36.167Z,1.48
2022-09-17T02:20:03.753Z,1.70
2022-09-17T02:22:35.597Z,1.83
2022-09-17T02:25:06.089Z,1.77
2022-09-17T02:27:36.483Z,1.60
2022-09-17T02:30:04.348Z,1.60
2022-09-17T02:32:31.592Z,1.45
2022-09-17T02:34:58.962Z,1.67
2022-09-17T02:37:27.774Z,1.52
2022-09-17T02:39:55.620Z,1.63
2022-09-17T02:42:32.062Z,1.85
2022-09-17T02:45:18.012Z,1.55
2022-09-17T02:47:52.556Z,1.50
2022-09-17T02:50:34.798Z,1.80
2022-09-17T02:53:02.069Z,1.48
2022-09-17T02:55:39.696Z,1.30
2022-09-17T02:58:15.335Z,2.00
2022-09-17T03:00:43.436Z,1.75
2022-09-17T03:03:14.096Z,1.48
2022-09-17T03:05:42.872Z,1.80
2022-09-17T03:08:13.085Z,1.40
2022-09-17T03:10:40.584Z,2.30
2022-09-17T03:13:07.939Z,1.63
2022-09-17T03:15:35.307Z,2.30
2022-09-17T03:18:02.838Z,1.85
2022-09-17T03:20:30.061Z,1.50
2022-09-17T03:22:57.411Z,1.67
2022-09-17T03:25:24.907Z,1.48
2022-09-17T03:27:52.585Z,1.73
2022-09-17T03:30:19.976Z,1.75
2022-09-17T03:32:47.363Z,1.88
2022-09-17T03:35:14.671Z,1.50
2022-09-17T03:37:43.184Z,1.65
2022-09-17T03:40:10.599Z,1.73
2022-09-17T03:42:37.931Z,3.15
2022-09-17T03:45:05.435Z,1.50
2022-09-17T03:47:34.076Z,1.67
2022-09-17T03:50:03.113Z,1.70
2022-09-17T03:52:30.455Z,2.03
2022-09-17T03:54:57.724Z,1.52
2022-09-17T03:57:26.039Z,1.67
2022-09-17T03:59:53.370Z,1.67
2022-09-17T04:02:20.786Z,1.80
2022-09-17T04:04:50.090Z,1.42
2022-09-17T04:07:19.960Z,1.80
2022-09-17T04:12:16.110Z,1.80
2022-09-17T04:14:43.378Z,1.60
2022-09-17T04:17:12.286Z,1.40
2022-09-17T04:19:39.612Z,1.75
2022-09-17T04:22:06.855Z,1.45
2022-09-17T04:24:36.065Z,2.15
2022-09-17T04:27:05.215Z,1.63
2022-09-17T04:29:32.789Z,1.38
2022-09-17T04:32:00.076Z,1.52
2022-09-17T04:34:27.418Z,1.42
2022-09-17T04:36:54.677Z,1.60
2022-09-17T04:39:22.085Z,1.67
2022-09-17T04:41:49.335Z,1.65
2022-09-17T04:44:16.593Z,1.73
2022-09-17T04:46:43.937Z,1.63
2022-09-17T04:49:11.448Z,1.45
2022-09-17T04:51:38.684Z,1.50
2022-09-17T04:54:06.010Z,1.83
2022-09-17T04:56:33.389Z,1.30
2022-09-17T04:59:00.656Z,1.90
2022-09-17T05:01:28.070Z,1.60
2022-09-17T05:03:55.404Z,1.40
2022-09-17T05:06:22.691Z,1.92
2022-09-17T05:08:50.729Z,1.48
2022-09-17T05:11:18.056Z,1.60
2022-09-17T05:13:45.367Z,1.30
2022-09-17T05:16:12.720Z,1.73
2022-09-17T05:18:40.073Z,1.83
2022-09-17T05:21:07.374Z,1.52
2022-09-17T05:23:34.714Z,1.60
2022-09-17T05:26:02.707Z,1.73
2022-09-17T05:28:29.960Z,1.80
2022-09-17T05:31:02.099Z,1.70
2022-09-17T05:33:31.393Z,1.33
2022-09-17T05:36:02.419Z,1.40
2022-09-17T05:38:31.084Z,2.03
2022-09-17T05:40:58.467Z,1.40
2022-09-17T05:43:26.006Z,1.42
2022-09-17T05:45:55.666Z,1.65
2022-09-17T05:50:52.148Z,1.60
2022-09-17T05:53:20.922Z,1.40
2022-09-17T05:55:51.188Z,1.67
2022-09-17T05:58:19.829Z,1.60
2022-09-17T06:00:48.886Z,1.75
2022-09-17T06:03:19.149Z,1.85
2022-09-17T06:05:54.514Z,1.70
2022-09-17T06:08:22.014Z,1.60
2022-09-17T06:10:49.476Z,1.45
2022-09-17T06:13:17.768Z,1.60
2022-09-17T06:15:50.488Z,1.30
2022-09-17T06:18:18.134Z,1.63
2022-09-17T06:20:53.323Z,1.40
2022-09-17T06:23:20.635Z,1.40
2022-09-17T06:25:56.413Z,1.50
2022-09-17T06:28:26.147Z,1.40
2022-09-17T06:30:54.638Z,1.20
2022-09-17T06:33:22.484Z,1.40
2022-09-17T06:35:49.567Z,1.30
2022-09-17T06:38:16.432Z,1.42
2022-09-17T06:40:43.792Z,1.40
2022-09-17T06:43:10.877Z,1.83
2022-09-17T06:45:37.991Z,1.50
2022-09-17T06:48:05.550Z,1.40
2022-09-17T06:50:32.479Z,1.00
2022-09-17T06:52:59.359Z,1.42
2022-09-17T06:55:26.445Z,1.23
2022-09-17T06:57:53.379Z,1.40
2022-09-17T07:00:20.566Z,1.50
2022-09-17T07:03:00.961Z,1.67
2022-09-17T07:05:29.935Z,1.38
2022-09-17T07:07:57.377Z,1.13
2022-09-17T07:10:24.400Z,1.40
2022-09-17T07:12:51.391Z,1.40
2022-09-17T07:15:18.392Z,1.30
2022-09-17T07:17:45.329Z,1.77
2022-09-17T07:20:12.710Z,1.80
2022-09-17T07:22:39.889Z,1.60
2022-09-17T07:25:07.938Z,1.50
2022-09-17T07:27:34.811Z,1.27
2022-09-17T07:30:01.957Z,1.65
2022-09-17T07:32:31.937Z,1.10
2022-09-17T07:34:58.827Z,1.40
2022-09-17T07:37:25.993Z,1.50
2022-09-17T07:39:52.915Z,1.30
2022-09-17T07:42:19.878Z,1.70
2022-09-17T07:44:47.101Z,1.30
2022-09-17T07:47:14.059Z,1.10
2022-09-17T07:49:40.946Z,1.58
2022-09-17T07:52:07.863Z,1.38
2022-09-17T07:54:37.014Z,1.58
2022-09-17T07:57:04.737Z,1.40
2022-09-17T07:59:31.919Z,1.30
2022-09-17T08:01:58.891Z,1.35
2022-09-17T08:04:25.925Z,1.70
2022-09-17T08:06:52.784Z,1.75
2022-09-17T08:09:23.553Z,1.50
2022-09-17T08:11:57.538Z,1.73
2022-09-17T08:14:29.170Z,1.33
2022-09-17T08:16:57.181Z,1.50
2022-09-17T08:19:24.592Z,1.10
2022-09-17T08:21:52.251Z,1.30
2022-09-17T08:24:19.175Z,1.55
2022-09-17T08:26:46.073Z,1.48
2022-09-17T08:29:13.079Z,1.38
2022-09-17T08:31:40.178Z,1.70
2022-09-17T08:34:10.456Z,1.30
2022-09-17T08:36:37.416Z,1.77
2022-09-17T08:39:04.850Z,1.60
2022-09-17T08:41:44.678Z,1.60
2022-09-17T08:46:47.790Z,1.00
2022-09-17T08:49:31.811Z,1.20
2022-09-17T08:52:34.629Z,1.25
2022-09-17T08:55:13.422Z,1.30
2022-09-17T08:58:04.854Z,1.45
2022-09-17T09:00:51.077Z,1.30
2022-09-17T09:03:25.638Z,1.27
2022-09-17T09:05:53.440Z,1.30
2022-09-17T09:08:33.752Z,1.60
2022-09-17T09:11:07.531Z,1.38
2022-09-17T09:13:40.638Z,1.42
2022-09-17T09:16:19.030Z,1.30
2022-09-17T09:18:51.559Z,1.40
2022-09-17T09:21:29.788Z,1.30
2022-09-17T09:24:14.719Z,1.80
2022-09-17T09:27:04.427Z,1.73
2022-09-17T09:29:49.836Z,1.40
2022-09-17T09:32:44.619Z,1.70
2022-09-17T09:35:31.334Z,1.10
2022-09-17T09:38:06.529Z,1.95
2022-09-17T09:40:44.994Z,1.63
2022-09-17T09:43:20.273Z,1.60
2022-09-17T09:45:55.863Z,1.73
2022-09-17T09:48:31.235Z,1.52
2022-09-17T09:51:07.735Z,1.67
2022-09-17T09:53:37.558Z,1.40
2022-09-17T09:58:54.288Z,2.25
2022-09-17T10:01:21.371Z,1.92
2022-09-17T10:03:52.026Z,1.85
2022-09-17T10:06:22.386Z,1.50
2022-09-17T10:08:55.889Z,1.83
2022-09-17T10:11:33.175Z,1.33
2022-09-17T10:14:20.213Z,1.30
2022-09-17T10:16:47.123Z,1.25
2022-09-17T10:19:19.628Z,1.60
2022-09-17T10:21:46.651Z,1.38
2022-09-17T10:24:23.512Z,1.48
2022-09-17T10:26:51.539Z,1.50
2022-09-17T10:29:21.748Z,1.50
2022-09-17T10:31:52.982Z,2.20
2022-09-17T10:34:22.586Z,1.83
2022-09-17T10:36:50.293Z,1.50
2022-09-17T10:39:44.167Z,1.40
2022-09-17T10:42:16.660Z,1.05
2022-09-17T10:44:54.071Z,1.48
2022-09-17T10:47:36.118Z,1.38
2022-09-17T10:50:05.597Z,1.10
2022-09-17T10:52:36.251Z,1.30
2022-09-17T10:55:21.148Z,1.58
2022-09-17T10:58:05.105Z,1.25
2022-09-17T11:01:09.529Z,2.00
2022-09-17T11:03:39.132Z,1.00
2022-09-17T11:06:31.865Z,1.33
2022-09-17T11:09:30.622Z,1.77
2022-09-17T11:12:35.218Z,1.40
2022-09-17T11:15:17.471Z,1.30
2022-09-17T11:18:25.863Z,1.30
2022-09-17T11:21:08.810Z,1.40
2022-09-17T11:24:06.514Z,1.23
2022-09-17T11:26:51.054Z,1.30
2022-09-17T11:29:51.892Z,1.15
2022-09-17T11:32:50.793Z,1.25
2022-09-17T11:35:24.668Z,1.50
2022-09-17T11:38:18.173Z,1.48
2022-09-17T11:40:56.784Z,1.10
2022-09-17T11:43:39.620Z,1.30
2022-09-17T11:46:35.965Z,1.35
2022-09-17T11:49:18.066Z,1.08
2022-09-17T11:52:12.066Z,1.30
2022-09-17T11:55:09.175Z,1.08
2022-09-17T11:57:43.153Z,1.58
2022-09-17T12:00:15.963Z,1.05
2022-09-17T12:02:50.694Z,1.30
2022-09-17T12:05:47.169Z,1.33
2022-09-17T12:08:31.053Z,1.30
2022-09-17T12:11:18.630Z,1.20
2022-09-17T12:13:57.070Z,1.10
2022-09-17T12:16:39.710Z,1.23
2022-09-17T12:19:21.984Z,1.45
2022-09-17T12:22:04.779Z,1.48
2022-09-17T12:24:32.548Z,1.30
2022-09-17T12:27:08.384Z,2.20
2022-09-17T12:30:00.753Z,1.30
2022-09-17T12:32:57.936Z,1.40
2022-09-17T12:36:10.332Z,1.25
2022-09-17T12:39:03.241Z,1.80
2022-09-17T12:41:59.571Z,1.50
2022-09-17T12:44:35.804Z,1.40
2022-09-17T12:47:29.006Z,1.27
2022-09-17T12:50:20.755Z,1.30
2022-09-17T12:53:21.406Z,1.40
2022-09-17T12:56:03.149Z,1.40
2022-09-17T12:58:35.828Z,1.90
2022-09-17T13:01:14.301Z,1.85
2022-09-17T13:03:47.910Z,1.60
2022-09-17T13:06:26.339Z,1.40
2022-09-17T13:09:09.549Z,1.45
2022-09-17T13:11:49.173Z,1.40
2022-09-17T13:14:46.789Z,0.90
2022-09-17T13:17:28.666Z,1.42
2022-09-17T13:19:59.625Z,1.42
2022-09-17T13:22:34.649Z,1.13
2022-09-17T13:25:08.061Z,1.30
2022-09-17T13:27:38.353Z,1.70
2022-09-17T13:30:07.428Z,1.42
2022-09-17T13:32:38.868Z,1.30
2022-09-17T13:35:11.717Z,1.73
2022-09-17T13:37:53.821Z,1.30
2022-09-17T13:40:24.522Z,1.40
2022-09-17T13:43:14.348Z,1.35
2022-09-17T13:48:32.689Z,1.10
2022-09-17T13:51:31.989Z,1.70
2022-09-17T13:54:05.114Z,1.58
2022-09-17T13:56:36.948Z,1.90
2022-09-17T13:59:28.007Z,1.63
2022-09-17T14:02:27.464Z,1.40
2022-09-17T14:05:34.858Z,1.45
2022-09-17T14:08:29.328Z,1.13
2022-09-17T14:11:00.963Z,1.30
2022-09-17T14:13:43.111Z,1.52
2022-09-17T14:16:46.497Z,1.10
2022-09-17T14:19:16.265Z,1.30
2022-09-17T14:22:03.488Z,1.52
2022-09-17T14:24:38.257Z,1.20
2022-09-17T14:27:13.478Z,1.77
2022-09-17T14:30:04.287Z,1.45
2022-09-17T14:32:55.937Z,1.60
2022-09-17T14:35:41.428Z,1.52
2022-09-17T14:38:44.387Z,1.58
2022-09-17T14:41:11.312Z,1.20
2022-09-17T14:44:02.478Z,1.17
2022-09-17T14:46:49.710Z,1.67
2022-09-17T14:49:25.233Z,1.65
2022-09-17T14:51:53.975Z,1.20
2022-09-17T14:54:22.638Z,1.45
2022-09-17T14:56:56.749Z,1.33
2022-09-17T14:59:46.576Z,1.95
2022-09-17T15:02:35.168Z,1.48
2022-09-17T15:05:04.355Z,1.30
2022-09-17T15:07:31.560Z,1.77
2022-09-17T15:10:15.724Z,1.65
2022-09-17T15:12:44.595Z,1.60
2022-09-17T15:15:23.788Z,1.42
2022-09-17T15:17:52.131Z,1.98
2022-09-17T15:20:23.284Z,1.75
2022-09-17T15:23:07.576Z,2.47
2022-09-17T15:25:36.785Z,1.75
2022-09-17T15:28:10.656Z,1.30
2022-09-17T15:30:37.983Z,1.80
2022-09-17T15:33:11.829Z,1.90
2022-09-17T15:35:39.634Z,1.70
2022-09-17T15:38:29.949Z,1.40
2022-09-17T15:41:11.783Z,1.52
2022-09-17T15:43:41.349Z,1.40
2022-09-17T15:46:27.753Z,1.23
2022-09-17T15:48:55.929Z,1.80
2022-09-17T15:51:32.204Z,1.20
2022-09-17T15:54:06.970Z,1.15
2022-09-17T15:56:37.059Z,1.25
2022-09-17T15:59:30.891Z,2.03
2022-09-17T16:02:00.285Z,1.52
2022-09-17T16:04:29.062Z,1.48
2022-09-17T16:07:08.572Z,1.30
2022-09-17T16:09:51.861Z,1.52
2022-09-17T16:12:23.676Z,1.25
2022-09-17T16:14:57.250Z,1.40
2022-09-17T16:17:41.111Z,1.20
2022-09-17T16:20:16.817Z,1.30
2022-09-17T16:22:49.057Z,1.38
2022-09-17T16:25:17.375Z,1.60
2022-09-17T16:28:09.195Z,1.42
2022-09-17T16:30:36.376Z,1.17
2022-09-17T16:33:04.176Z,1.27
2022-09-17T16:35:31.113Z,1.33
2022-09-17T16:37:58.058Z,1.83
2022-09-17T16:40:28.268Z,1.40
2022-09-17T16:42:55.380Z,1.20
2022-09-17T16:45:26.633Z,1.00
2022-09-17T16:47:56.038Z,0.70
2022-09-17T16:50:23.297Z,0.77
2022-09-17T16:52:50.214Z,0.88
2022-09-17T16:55:18.538Z,1.00
2022-09-17T16:57:46.470Z,1.10
2022-09-17T17:00:17.282Z,0.88
2022-09-17T17:02:45.291Z,1.10
2022-09-17T17:05:12.252Z,1.30
2022-09-17T17:07:41.078Z,1.30
2022-09-17T17:10:12.159Z,0.90
2022-09-17T17:12:42.236Z,1.05
2022-09-17T17:15:10.625Z,1.05
2022-09-17T17:17:39.307Z,1.20
2022-09-17T17:20:13.676Z,1.77
2022-09-17T17:22:44.153Z,1.77
2022-09-17T17:25:13.468Z,2.15
2022-09-17T17:27:42.058Z,2.92
2022-09-17T17:30:17.727Z,2.97
2022-09-17T17:32:50.938Z,2.10
2022-09-17T17:35:18.449Z,2.42
2022-09-17T17:37:49.160Z,2.08
2022-09-17T17:40:17.234Z,1.77
2022-09-17T17:42:48.422Z,2.15
2022-09-17T17:45:17.048Z,2.10
2022-09-17T17:47:45.471Z,1.98
2022-09-17T17:50:12.530Z,2.10
2022-09-17T17:52:40.991Z,3.42
2022-09-17T17:55:09.092Z,3.28
2022-09-17T17:57:38.903Z,2.88
2022-09-17T18:00:08.217Z,2.95
2022-09-17T18:02:37.009Z,2.83
2022-09-17T18:05:05.987Z,3.40
2022-09-17T18:07:34.854Z,3.17
2022-09-17T18:10:03.363Z,4.40
2022-09-17T18:12:34.059Z,3.55
2022-09-17T18:15:00.952Z,3.45
2022-09-17T18:17:32.082Z,3.83
2022-09-17T18:19:59.940Z,3.25
2022-09-17T18:22:27.473Z,3.55
2022-09-17T18:24:55.043Z,3.80
2022-09-17T18:27:23.569Z,4.40
2022-09-17T18:29:50.827Z,4.22
2022-09-17T18:32:17.699Z,4.63
2022-09-17T18:34:44.586Z,5.00
2022-09-17T18:37:11.453Z,4.15
2022-09-17T18:39:58.114Z,3.83
2022-09-17T18:42:25.676Z,3.67
2022-09-17T18:44:52.569Z,3.55
2022-09-17T18:47:19.518Z,3.40
2022-09-17T18:49:46.450Z,3.53
2022-09-17T18:52:13.420Z,3.22
2022-09-17T18:54:42.834Z,3.20
2022-09-17T18:57:09.736Z,2.65
2022-09-17T18:59:38.354Z,2.88
2022-09-17T19:02:06.798Z,2.20
2022-09-17T19:04:33.773Z,2.65
2022-09-17T19:07:01.049Z,2.20
2022-09-17T19:09:28.006Z,2.10
2022-09-17T19:11:54.886Z,2.08
2022-09-17T19:14:21.782Z,2.13
2022-09-17T19:16:51.063Z,2.00
2022-09-17T19:19:18.327Z,1.67
2022-09-17T19:21:46.219Z,2.08
2022-09-17T19:24:16.760Z,2.00
2022-09-17T19:26:48.814Z,1.58
2022-09-17T19:29:19.063Z,1.70
2022-09-17T19:31:46.964Z,1.83
2022-09-17T19:34:16.081Z,1.63
2022-09-17T19:36:43.112Z,1.70
2022-09-17T19:39:10.303Z,1.80
2022-09-17T19:41:37.817Z,1.67
2022-09-17T19:44:07.094Z,1.58
2022-09-17T19:46:39.501Z,1.70
2022-09-17T19:49:06.779Z,1.80
2022-09-17T19:51:34.023Z,1.25
2022-09-17T19:54:01.228Z,1.50
2022-09-17T19:56:28.346Z,1.70
2022-09-17T19:58:56.692Z,1.50
2022-09-17T20:01:23.683Z,1.33
2022-09-17T20:03:50.612Z,1.23
2022-09-17T20:06:19.086Z,1.40
2022-09-17T20:08:54.488Z,1.55
2022-09-17T20:11:24.287Z,1.48
2022-09-17T20:13:56.050Z,1.50
2022-09-17T20:16:23.174Z,1.42
2022-09-17T20:18:50.826Z,1.40
2022-09-17T20:21:19.251Z,1.38
2022-09-17T20:23:46.555Z,1.58
2022-09-17T20:26:14.368Z,1.40
2022-09-17T20:28:41.691Z,2.00
2022-09-17T20:31:15.508Z,1.55
2022-09-17T20:33:42.919Z,1.50
2022-09-17T20:36:18.158Z,1.65
2022-09-17T20:41:34.070Z,1.85
2022-09-17T20:44:00.978Z,1.48
2022-09-17T20:46:29.521Z,1.60
2022-09-17T20:48:58.141Z,1.58
2022-09-17T20:51:27.829Z,1.60
2022-09-17T20:53:58.190Z,1.33
2022-09-17T20:56:31.514Z,1.52
2022-09-17T20:59:04.051Z,1.40
2022-09-17T21:01:36.949Z,1.60
2022-09-17T21:04:06.289Z,1.50
2022-09-17T21:06:41.191Z,1.50
2022-09-17T21:09:11.988Z,1.60
2022-09-17T21:11:39.283Z,1.45
2022-09-17T21:14:06.408Z,1.70
2022-09-17T21:16:33.463Z,1.40
2022-09-17T21:19:03.520Z,1.42
2022-09-17T21:21:30.488Z,1.63
2022-09-17T21:24:01.226Z,1.40
2022-09-17T21:26:28.571Z,1.52
2022-09-17T21:28:56.997Z,1.80
2022-09-17T21:31:32.358Z,1.50
2022-09-17T21:34:02.298Z,1.80
2022-09-17T21:36:31.615Z,1.95
2022-09-17T21:39:00.897Z,2.38
2022-09-17T21:41:28.417Z,1.52
2022-09-17T21:43:55.551Z,1.70
2022-09-17T21:46:24.687Z,1.70
2022-09-17T21:48:57.273Z,2.00
2022-09-17T21:51:32.049Z,1.92
2022-09-17T21:54:01.054Z,2.20
2022-09-17T21:56:29.438Z,1.93
2022-09-17T21:59:02.184Z,2.30
2022-09-17T22:01:32.171Z,2.70
2022-09-17T22:04:00.374Z,3.53
2022-09-17T22:06:30.163Z,3.85
2022-09-17T22:08:58.852Z,3.40
2022-09-17T22:11:33.098Z,3.78
2022-09-17T22:14:05.207Z,3.50
2022-09-17T22:16:35.843Z,2.55
2022-09-17T22:19:04.866Z,2.45
2022-09-17T22:21:35.264Z,2.00
2022-09-17T22:24:04.027Z,1.73
2022-09-17T22:26:33.642Z,2.10
2022-09-17T22:29:06.327Z,1.98
2022-09-17T22:31:33.912Z,1.80
2022-09-17T22:34:01.238Z,1.73
2022-09-17T22:36:28.901Z,2.00
2022-09-17T22:38:57.963Z,1.65
2022-09-17T22:41:30.043Z,1.63
2022-09-17T22:43:59.169Z,1.73
2022-09-17T22:46:34.550Z,2.10
2022-09-17T22:49:01.763Z,1.80
2022-09-17T22:51:30.402Z,1.98
2022-09-17T22:53:58.776Z,1.40
2022-09-17T22:56:27.377Z,1.73
2022-09-17T22:58:56.257Z,1.73
2022-09-17T23:01:26.026Z,6.95
2022-09-17T23:03:53.115Z,1.20
2022-09-17T23:06:22.621Z,1.77
2022-09-17T23:08:50.064Z,1.60
2022-09-17T23:11:38.143Z,1.70
2022-09-17T23:14:09.210Z,1.60
2022-09-17T23:16:39.786Z,1.35
2022-09-17T23:19:07.119Z,1.33
2022-09-17T23:21:34.267Z,1.20
2022-09-17T23:24:01.634Z,1.48
2022-09-17T23:26:28.713Z,1.38
2022-09-17T23:28:56.133Z,2.05
2022-09-17T23:31:27.013Z,1.58
2022-09-17T23:33:55.296Z,1.27
2022-09-17T23:36:28.052Z,1.20
2022-09-17T23:38:56.086Z,1.50
2022-09-17T23:41:25.577Z,1.20
2022-09-17T23:43:55.762Z,1.33
2022-09-17T23:46:24.888Z,1.50
2022-09-17T23:48:53.523Z,1.48
2022-09-17T23:51:22.146Z,1.33
2022-09-17T23:53:49.200Z,1.25
2022-09-17T23:56:19.535Z,1.20
2022-09-17T23:58:46.483Z,1.60
